createdAt,value
2023-05-17T00:00:10.997Z,0.00
2023-05-17T00:01:11.019Z,0.00
2023-05-17T00:02:31.932Z,0.00
2023-05-17T00:03:31.866Z,0.00
2023-05-17T00:04:10.895Z,0.00
2023-05-17T00:05:10.793Z,0.00
2023-05-17T00:06:10.790Z,0.00
2023-05-17T00:07:31.783Z,0.00
2023-05-17T00:08:31.700Z,0.00
2023-05-17T00:09:10.665Z,0.00
2023-05-17T00:10:10.623Z,0.00
2023-05-17T00:11:10.594Z,0.00
2023-05-17T00:12:31.544Z,0.00
2023-05-17T00:13:31.519Z,0.00
2023-05-17T00:14:10.493Z,0.00
2023-05-17T00:15:10.447Z,0.00
2023-05-17T00:16:10.408Z,0.00
2023-05-17T00:17:31.514Z,0.00
2023-05-17T00:18:31.418Z,0.00
2023-05-17T00:19:10.472Z,0.00
2023-05-17T00:20:10.275Z,0.00
2023-05-17T00:21:10.239Z,0.00
2023-05-17T00:22:31.192Z,0.00
2023-05-17T00:23:31.177Z,0.00
2023-05-17T00:24:10.128Z,0.00
2023-05-17T00:25:10.093Z,0.00
2023-05-17T00:26:10.053Z,0.00
2023-05-17T00:27:31.030Z,0.00
2023-05-17T00:28:30.977Z,0.00
2023-05-17T00:29:09.950Z,0.00
2023-05-17T00:30:09.916Z,0.00
2023-05-17T00:31:09.875Z,0.00
2023-05-17T00:32:30.872Z,0.00
2023-05-17T00:33:30.938Z,0.00
2023-05-17T00:34:09.777Z,0.00
2023-05-17T00:35:09.787Z,0.00
2023-05-17T00:36:09.702Z,0.00
2023-05-17T00:37:30.665Z,0.00
2023-05-17T00:38:30.625Z,0.00
2023-05-17T00:39:09.615Z,0.00
2023-05-17T00:40:09.552Z,0.00
2023-05-17T00:41:09.524Z,0.00
2023-05-17T00:42:30.483Z,0.00
2023-05-17T00:43:30.455Z,0.00
2023-05-17T00:44:09.427Z,0.00
2023-05-17T00:45:09.380Z,0.00
2023-05-17T00:46:09.347Z,0.00
2023-05-17T00:47:30.355Z,0.00
2023-05-17T00:48:30.316Z,0.00
2023-05-17T00:49:09.242Z,0.00
2023-05-17T00:50:09.198Z,0.00
2023-05-17T00:51:09.165Z,0.00
2023-05-17T00:52:30.127Z,0.00
2023-05-17T00:53:30.091Z,0.00
2023-05-17T00:54:09.072Z,0.00
2023-05-17T00:55:09.026Z,0.00
2023-05-17T00:56:09.000Z,0.00
2023-05-17T00:57:29.949Z,0.00
2023-05-17T00:58:29.911Z,0.00
2023-05-17T00:59:08.879Z,0.00
2023-05-17T01:00:08.846Z,0.00
2023-05-17T01:01:08.812Z,0.00
2023-05-17T01:02:30.080Z,0.00
2023-05-17T01:03:29.824Z,0.00
2023-05-17T01:04:08.807Z,0.00
2023-05-17T01:05:08.736Z,0.00
2023-05-17T01:06:08.628Z,0.00
2023-05-17T01:07:29.596Z,0.00
2023-05-17T01:08:29.558Z,0.00
2023-05-17T01:09:08.516Z,0.00
2023-05-17T01:10:08.482Z,0.00
2023-05-17T01:11:08.446Z,0.00
2023-05-17T01:12:29.420Z,0.00
2023-05-17T01:13:29.390Z,0.00
2023-05-17T01:14:08.338Z,0.00
2023-05-17T01:15:08.365Z,0.00
2023-05-17T01:16:08.268Z,0.00
2023-05-17T01:17:29.256Z,0.00
2023-05-17T01:18:29.281Z,0.00
2023-05-17T01:19:08.210Z,0.00
2023-05-17T01:20:08.215Z,0.00
2023-05-17T01:21:08.176Z,0.00
2023-05-17T01:22:29.069Z,0.00
2023-05-17T01:23:29.023Z,0.00
2023-05-17T01:24:08.009Z,0.00
2023-05-17T01:25:07.950Z,0.00
2023-05-17T01:26:07.927Z,0.00
2023-05-17T01:27:28.873Z,0.00
2023-05-17T01:28:28.863Z,0.00
2023-05-17T01:29:07.807Z,0.00
2023-05-17T01:30:07.782Z,0.00
2023-05-17T01:31:07.744Z,0.00
2023-05-17T01:32:28.774Z,0.00
2023-05-17T01:33:28.796Z,0.00
2023-05-17T01:34:07.629Z,0.00
2023-05-17T01:35:07.584Z,0.00
2023-05-17T01:36:07.553Z,0.00
2023-05-17T01:37:28.587Z,0.00
2023-05-17T01:38:28.491Z,0.00
2023-05-17T01:39:07.454Z,0.00
2023-05-17T01:40:07.410Z,0.00
2023-05-17T01:41:07.373Z,0.00
2023-05-17T01:42:28.339Z,0.00
2023-05-17T01:43:28.297Z,0.00
2023-05-17T01:44:07.278Z,0.00
2023-05-17T01:45:07.242Z,0.00
2023-05-17T01:46:07.197Z,0.00
2023-05-17T01:47:28.190Z,0.00
2023-05-17T01:48:28.165Z,0.00
2023-05-17T01:49:07.085Z,0.00
2023-05-17T01:50:07.058Z,0.00
2023-05-17T01:51:07.015Z,0.00
2023-05-17T01:52:27.976Z,0.00
2023-05-17T01:53:27.940Z,0.00
2023-05-17T01:54:06.913Z,0.00
2023-05-17T01:55:06.898Z,0.00
2023-05-17T01:56:07.663Z,0.00
2023-05-17T01:57:27.797Z,0.00
2023-05-17T01:58:27.764Z,0.00
2023-05-17T01:59:06.727Z,0.00
2023-05-17T02:00:06.705Z,0.00
2023-05-17T02:01:06.663Z,0.00
2023-05-17T02:02:27.659Z,0.00
2023-05-17T02:03:27.597Z,0.00
2023-05-17T02:04:06.591Z,0.00
2023-05-17T02:05:06.616Z,0.00
2023-05-17T02:06:06.488Z,0.00
2023-05-17T02:07:27.445Z,0.00
2023-05-17T02:08:27.407Z,0.00
2023-05-17T02:09:06.507Z,0.00
2023-05-17T02:10:06.332Z,0.00
2023-05-17T02:11:06.304Z,0.00
2023-05-17T02:12:27.255Z,0.00
2023-05-17T02:13:27.225Z,0.00
2023-05-17T02:14:06.194Z,0.00
2023-05-17T02:15:06.149Z,0.00
2023-05-17T02:16:06.127Z,0.00
2023-05-17T02:17:27.149Z,0.00
2023-05-17T02:18:27.240Z,0.00
2023-05-17T02:19:06.043Z,0.00
2023-05-17T02:20:05.978Z,0.00
2023-05-17T02:21:05.947Z,0.00
2023-05-17T02:22:26.899Z,0.00
2023-05-17T02:23:26.858Z,0.00
2023-05-17T02:24:05.832Z,0.00
2023-05-17T02:25:05.941Z,0.00
2023-05-17T02:26:05.758Z,0.00
2023-05-17T02:27:26.719Z,0.00
2023-05-17T02:28:26.700Z,0.00
2023-05-17T02:29:05.652Z,0.00
2023-05-17T02:30:05.615Z,0.00
2023-05-17T02:31:05.581Z,0.00
2023-05-17T02:32:26.569Z,0.00
2023-05-17T02:33:26.563Z,0.00
2023-05-17T02:34:05.473Z,0.00
2023-05-17T02:35:05.445Z,0.00
2023-05-17T02:36:05.400Z,0.00
2023-05-17T02:37:26.364Z,0.00
2023-05-17T02:38:26.321Z,0.00
2023-05-17T02:39:05.288Z,0.00
2023-05-17T02:40:05.263Z,0.00
2023-05-17T02:41:05.363Z,0.00
2023-05-17T02:42:26.186Z,0.00
2023-05-17T02:43:26.135Z,0.00
2023-05-17T02:44:05.189Z,0.00
2023-05-17T02:45:05.090Z,0.00
2023-05-17T02:46:05.034Z,0.00
2023-05-17T02:47:26.108Z,0.00
2023-05-17T02:48:26.023Z,0.00
2023-05-17T02:49:04.923Z,0.00
2023-05-17T02:50:04.900Z,0.00
2023-05-17T02:51:04.856Z,0.00
2023-05-17T02:52:25.820Z,0.00
2023-05-17T02:53:25.785Z,0.00
2023-05-17T02:54:04.746Z,0.00
2023-05-17T02:55:04.759Z,0.00
2023-05-17T02:56:04.679Z,0.00
2023-05-17T02:57:25.640Z,0.00
2023-05-17T02:58:25.619Z,0.00
2023-05-17T02:59:04.560Z,0.00
2023-05-17T03:00:04.527Z,0.00
2023-05-17T03:01:04.502Z,0.00
2023-05-17T03:02:25.498Z,0.00
2023-05-17T03:03:25.475Z,0.00
2023-05-17T03:04:04.548Z,0.00
2023-05-17T03:05:04.348Z,0.00
2023-05-17T03:06:04.324Z,0.00
2023-05-17T03:07:25.266Z,0.00
2023-05-17T03:08:25.239Z,0.00
2023-05-17T03:09:04.204Z,0.00
2023-05-17T03:10:04.161Z,0.00
2023-05-17T03:11:04.140Z,0.00
2023-05-17T03:12:25.577Z,0.00
2023-05-17T03:13:25.333Z,0.00
2023-05-17T03:14:04.017Z,0.00
2023-05-17T03:15:03.983Z,0.00
2023-05-17T03:16:03.952Z,0.00
2023-05-17T03:17:24.969Z,0.00
2023-05-17T03:18:24.986Z,0.00
2023-05-17T03:19:04.033Z,0.00
2023-05-17T03:20:03.827Z,0.00
2023-05-17T03:21:03.767Z,0.00
2023-05-17T03:22:24.739Z,0.00
2023-05-17T03:23:24.695Z,0.00
2023-05-17T03:24:03.665Z,0.00
2023-05-17T03:25:03.616Z,0.00
2023-05-17T03:26:03.584Z,0.00
2023-05-17T03:27:24.574Z,0.00
2023-05-17T03:28:24.507Z,0.00
2023-05-17T03:29:03.552Z,0.00
2023-05-17T03:30:03.446Z,0.00
2023-05-17T03:31:03.449Z,0.00
2023-05-17T03:32:24.397Z,0.00
2023-05-17T03:33:24.459Z,0.00
2023-05-17T03:34:03.319Z,0.00
2023-05-17T03:35:03.279Z,0.00
2023-05-17T03:36:03.224Z,0.00
2023-05-17T03:37:24.180Z,0.00
2023-05-17T03:38:24.166Z,0.00
2023-05-17T03:39:03.117Z,0.00
2023-05-17T03:40:03.076Z,0.00
2023-05-17T03:41:03.049Z,0.00
2023-05-17T03:42:23.995Z,0.00
2023-05-17T03:43:23.960Z,0.00
2023-05-17T03:44:02.941Z,0.00
2023-05-17T03:45:03.188Z,0.00
2023-05-17T03:46:02.866Z,0.00
2023-05-17T03:47:24.031Z,0.00
2023-05-17T03:48:23.925Z,0.00
2023-05-17T03:49:02.789Z,0.00
2023-05-17T03:50:02.717Z,0.00
2023-05-17T03:51:02.677Z,0.00
2023-05-17T03:52:23.633Z,0.00
2023-05-17T03:53:23.601Z,0.00
2023-05-17T03:54:02.573Z,0.00
2023-05-17T03:55:02.534Z,0.00
2023-05-17T03:56:02.519Z,0.00
2023-05-17T03:57:23.461Z,0.00
2023-05-17T03:58:23.422Z,0.00
2023-05-17T03:59:02.472Z,0.00
2023-05-17T04:00:02.364Z,0.00
2023-05-17T04:01:02.704Z,0.00
2023-05-17T04:02:23.328Z,0.00
2023-05-17T04:03:23.234Z,0.00
2023-05-17T04:04:02.261Z,0.00
2023-05-17T04:05:02.204Z,0.00
2023-05-17T04:06:02.127Z,0.00
2023-05-17T04:07:23.092Z,0.00
2023-05-17T04:08:23.060Z,0.00
2023-05-17T04:09:02.027Z,5.63
2023-05-17T04:10:02.046Z,5.63
2023-05-17T04:11:01.948Z,5.63
2023-05-17T04:12:22.911Z,5.63
2023-05-17T04:13:22.885Z,5.63
2023-05-17T04:14:01.851Z,5.63
2023-05-17T04:15:01.816Z,5.63
2023-05-17T04:16:01.785Z,5.63
2023-05-17T04:17:22.857Z,5.63
2023-05-17T04:18:22.801Z,5.63
2023-05-17T04:19:01.807Z,5.63
2023-05-17T04:20:01.623Z,5.63
2023-05-17T04:21:01.601Z,5.63
2023-05-17T04:22:22.553Z,5.63
2023-05-17T04:23:22.517Z,5.63
2023-05-17T04:24:01.478Z,5.63
2023-05-17T04:25:01.510Z,5.63
2023-05-17T04:26:01.408Z,5.63
2023-05-17T04:27:22.368Z,5.63
2023-05-17T04:28:22.351Z,5.63
2023-05-17T04:29:01.305Z,5.63
2023-05-17T04:30:01.260Z,5.63
2023-05-17T04:31:01.237Z,5.63
2023-05-17T04:32:22.180Z,5.63
2023-05-17T04:33:22.294Z,5.63
2023-05-17T04:34:01.180Z,5.63
2023-05-17T04:35:01.117Z,5.63
2023-05-17T04:36:01.103Z,5.63
2023-05-17T04:37:22.005Z,5.63
2023-05-17T04:38:21.972Z,5.63
2023-05-17T04:39:00.933Z,5.63
2023-05-17T04:40:00.899Z,5.63
2023-05-17T04:41:00.862Z,5.63
2023-05-17T04:42:21.826Z,5.63
2023-05-17T04:43:21.785Z,5.63
2023-05-17T04:44:00.758Z,5.63
2023-05-17T04:45:00.714Z,5.63
2023-05-17T04:46:00.742Z,5.63
2023-05-17T04:47:21.643Z,5.63
2023-05-17T04:48:22.534Z,5.63
2023-05-17T04:49:00.884Z,5.63
2023-05-17T04:50:00.543Z,5.63
2023-05-17T04:51:00.509Z,5.63
2023-05-17T04:52:21.475Z,5.63
2023-05-17T04:53:21.426Z,5.63
2023-05-17T04:54:00.405Z,11.25
2023-05-17T04:55:00.358Z,5.63
2023-05-17T04:56:00.335Z,5.63
2023-05-17T04:57:21.284Z,5.63
2023-05-17T04:58:21.245Z,5.63
2023-05-17T04:59:00.210Z,5.63
2023-05-17T05:00:00.179Z,5.63
2023-05-17T05:01:00.158Z,5.63
2023-05-17T05:02:21.110Z,5.63
2023-05-17T05:03:21.098Z,5.63
2023-05-17T05:04:00.132Z,11.25
2023-05-17T05:05:00.060Z,11.25
2023-05-17T05:05:59.971Z,11.25
2023-05-17T05:07:20.926Z,11.25
2023-05-17T05:08:20.884Z,11.25
2023-05-17T05:08:59.865Z,11.25
2023-05-17T05:09:59.808Z,11.25
2023-05-17T05:10:59.782Z,11.25
2023-05-17T05:12:20.748Z,16.88
2023-05-17T05:13:20.704Z,16.88
2023-05-17T05:13:59.686Z,16.88
2023-05-17T05:15:01.194Z,16.88
2023-05-17T05:15:59.600Z,16.88
2023-05-17T05:17:20.581Z,16.88
2023-05-17T05:18:20.577Z,16.88
2023-05-17T05:18:59.784Z,16.88
2023-05-17T05:19:59.580Z,16.88
2023-05-17T05:20:59.543Z,16.88
2023-05-17T05:22:20.380Z,16.88
2023-05-17T05:23:20.340Z,16.88
2023-05-17T05:23:59.312Z,16.88
2023-05-17T05:24:59.285Z,16.88
2023-05-17T05:25:59.245Z,22.50
2023-05-17T05:27:20.197Z,22.50
2023-05-17T05:28:20.167Z,22.50
2023-05-17T05:28:59.129Z,22.50
2023-05-17T05:29:59.109Z,22.50
2023-05-17T05:30:59.069Z,22.50
2023-05-17T05:32:20.038Z,16.88
2023-05-17T05:33:20.054Z,16.88
2023-05-17T05:33:58.980Z,16.88
2023-05-17T05:34:58.930Z,16.88
2023-05-17T05:35:58.877Z,16.88
2023-05-17T05:37:19.855Z,16.88
2023-05-17T05:38:19.807Z,16.88
2023-05-17T05:38:58.775Z,16.88
2023-05-17T05:39:58.736Z,16.88
2023-05-17T05:40:58.699Z,16.88
2023-05-17T05:42:19.668Z,16.88
2023-05-17T05:43:19.620Z,16.88
2023-05-17T05:43:58.613Z,16.88
2023-05-17T05:44:58.564Z,16.88
2023-05-17T05:45:58.536Z,16.88
2023-05-17T05:47:19.484Z,16.88
2023-05-17T05:48:19.559Z,11.25
2023-05-17T05:48:58.475Z,16.88
2023-05-17T05:49:58.385Z,16.88
2023-05-17T05:50:58.344Z,16.88
2023-05-17T05:52:19.303Z,16.88
2023-05-17T05:53:20.004Z,22.50
2023-05-17T05:53:58.245Z,28.13
2023-05-17T05:54:58.198Z,28.13
2023-05-17T05:55:58.164Z,33.75
2023-05-17T05:57:19.124Z,33.75
2023-05-17T05:58:19.170Z,33.75
2023-05-17T05:58:58.055Z,28.13
2023-05-17T05:59:58.020Z,22.50
2023-05-17T06:00:58.021Z,28.13
2023-05-17T06:02:18.968Z,28.13
2023-05-17T06:03:18.926Z,22.50
2023-05-17T06:03:57.879Z,28.13
2023-05-17T06:04:57.850Z,28.13
2023-05-17T06:05:57.869Z,33.75
2023-05-17T06:07:18.769Z,28.13
2023-05-17T06:08:18.739Z,28.13
2023-05-17T06:08:59.632Z,22.50
2023-05-17T06:09:57.665Z,22.50
2023-05-17T06:10:57.640Z,22.50
2023-05-17T06:12:18.585Z,28.13
2023-05-17T06:13:18.565Z,28.13
2023-05-17T06:13:57.523Z,22.50
2023-05-17T06:14:57.483Z,22.50
2023-05-17T06:15:57.455Z,22.50
2023-05-17T06:17:18.411Z,16.88
2023-05-17T06:18:18.440Z,22.50
2023-05-17T06:18:57.403Z,22.50
2023-05-17T06:19:57.415Z,22.50
2023-05-17T06:20:57.272Z,33.75
2023-05-17T06:22:18.230Z,33.75
2023-05-17T06:23:18.215Z,28.13
2023-05-17T06:23:57.166Z,22.50
2023-05-17T06:24:57.266Z,28.13
2023-05-17T06:25:57.096Z,28.13
2023-05-17T06:27:18.053Z,33.75
2023-05-17T06:28:18.027Z,28.13
2023-05-17T06:28:56.990Z,28.13
2023-05-17T06:29:56.950Z,22.50
2023-05-17T06:30:56.912Z,22.50
2023-05-17T06:32:17.868Z,22.50
2023-05-17T06:33:17.944Z,28.13
2023-05-17T06:33:56.876Z,33.75
2023-05-17T06:34:56.772Z,33.75
2023-05-17T06:35:58.177Z,33.75
2023-05-17T06:37:17.715Z,33.75
2023-05-17T06:38:17.655Z,39.38
2023-05-17T06:38:56.625Z,45.00
2023-05-17T06:40:00.288Z,45.00
2023-05-17T06:40:56.641Z,45.00
2023-05-17T06:42:17.532Z,45.00
2023-05-17T06:43:17.483Z,45.00
2023-05-17T06:43:56.482Z,45.00
2023-05-17T06:44:56.422Z,45.00
2023-05-17T06:45:56.382Z,45.00
2023-05-17T06:47:18.031Z,45.00
2023-05-17T06:48:17.328Z,45.00
2023-05-17T06:48:57.237Z,45.00
2023-05-17T06:49:56.245Z,45.00
2023-05-17T06:50:56.210Z,45.00
2023-05-17T06:52:17.165Z,45.00
2023-05-17T06:53:17.149Z,45.00
2023-05-17T06:53:56.087Z,45.00
2023-05-17T06:54:56.058Z,50.63
2023-05-17T06:55:56.024Z,50.63
2023-05-17T06:57:17.012Z,50.63
2023-05-17T06:58:16.946Z,50.63
2023-05-17T06:58:55.920Z,50.63
2023-05-17T06:59:55.969Z,56.25
2023-05-17T07:00:55.847Z,50.63
2023-05-17T07:02:16.801Z,50.63
2023-05-17T07:03:16.942Z,56.25
2023-05-17T07:03:55.972Z,56.25
2023-05-17T07:04:55.727Z,56.25
2023-05-17T07:05:55.665Z,56.25
2023-05-17T07:07:16.631Z,56.25
2023-05-17T07:08:16.743Z,61.88
2023-05-17T07:08:55.579Z,56.25
2023-05-17T07:09:55.526Z,56.25
2023-05-17T07:10:55.493Z,56.25
2023-05-17T07:12:16.483Z,56.25
2023-05-17T07:13:16.598Z,56.25
2023-05-17T07:13:55.410Z,56.25
2023-05-17T07:14:55.547Z,50.63
2023-05-17T07:15:55.324Z,56.25
2023-05-17T07:17:16.274Z,56.25
2023-05-17T07:18:16.316Z,50.63
2023-05-17T07:18:55.351Z,45.00
2023-05-17T07:19:55.267Z,45.00
2023-05-17T07:20:55.168Z,45.00
2023-05-17T07:22:16.115Z,45.00
2023-05-17T07:23:16.080Z,45.00
2023-05-17T07:23:55.044Z,50.63
2023-05-17T07:24:55.000Z,50.63
2023-05-17T07:25:54.972Z,50.63
2023-05-17T07:27:15.926Z,50.63
2023-05-17T07:28:15.908Z,50.63
2023-05-17T07:28:54.944Z,50.63
2023-05-17T07:29:54.830Z,56.25
2023-05-17T07:30:54.807Z,56.25
2023-05-17T07:32:15.762Z,56.25
2023-05-17T07:33:15.783Z,61.88
2023-05-17T07:33:54.701Z,61.88
2023-05-17T07:34:54.661Z,61.88
2023-05-17T07:35:54.634Z,61.88
2023-05-17T07:37:15.590Z,61.88
2023-05-17T07:38:15.559Z,61.88
2023-05-17T07:38:54.516Z,61.88
2023-05-17T07:39:54.480Z,67.50
2023-05-17T07:40:54.454Z,61.88
2023-05-17T07:42:15.422Z,61.88
2023-05-17T07:43:15.512Z,61.88
2023-05-17T07:43:54.355Z,61.88
2023-05-17T07:44:54.321Z,61.88
2023-05-17T07:45:54.288Z,56.25
2023-05-17T07:47:15.273Z,56.25
2023-05-17T07:48:15.439Z,45.00
2023-05-17T07:48:56.522Z,50.63
2023-05-17T07:49:54.139Z,50.63
2023-05-17T07:50:54.120Z,56.25
2023-05-17T07:52:15.067Z,56.25
2023-05-17T07:53:15.035Z,50.63
2023-05-17T07:53:53.999Z,50.63
2023-05-17T07:54:53.990Z,56.25
2023-05-17T07:55:53.939Z,56.25
2023-05-17T07:57:14.892Z,50.63
2023-05-17T07:58:14.861Z,56.25
2023-05-17T07:58:53.830Z,61.88
2023-05-17T07:59:53.792Z,61.88
2023-05-17T08:00:53.819Z,61.88
2023-05-17T08:02:14.777Z,61.88
2023-05-17T08:03:17.104Z,56.25
2023-05-17T08:03:53.669Z,56.25
2023-05-17T08:04:53.675Z,56.25
2023-05-17T08:05:53.615Z,56.25
2023-05-17T08:07:14.568Z,56.25
2023-05-17T08:08:14.728Z,56.25
2023-05-17T08:08:53.479Z,67.50
2023-05-17T08:09:53.450Z,61.88
2023-05-17T08:10:53.427Z,61.88
2023-05-17T08:12:14.371Z,61.88
2023-05-17T08:13:14.348Z,67.50
2023-05-17T08:13:53.320Z,67.50
2023-05-17T08:14:53.286Z,67.50
2023-05-17T08:15:58.406Z,73.13
2023-05-17T08:17:14.217Z,67.50
2023-05-17T08:18:14.280Z,73.13
2023-05-17T08:18:53.190Z,78.75
2023-05-17T08:19:53.199Z,73.13
2023-05-17T08:20:53.074Z,61.88
2023-05-17T08:22:14.053Z,61.88
2023-05-17T08:23:13.998Z,56.25
2023-05-17T08:23:52.965Z,61.88
2023-05-17T08:24:52.935Z,56.25
2023-05-17T08:25:54.509Z,56.25
2023-05-17T08:27:13.863Z,56.25
2023-05-17T08:28:13.830Z,61.88
2023-05-17T08:28:52.811Z,67.50
2023-05-17T08:29:52.766Z,61.88
2023-05-17T08:30:52.725Z,56.25
2023-05-17T08:32:13.700Z,50.63
2023-05-17T08:33:13.715Z,50.63
2023-05-17T08:33:52.660Z,50.63
2023-05-17T08:34:52.585Z,50.63
2023-05-17T08:35:53.502Z,45.00
2023-05-17T08:37:13.552Z,45.00
2023-05-17T08:38:13.492Z,45.00
2023-05-17T08:38:52.450Z,45.00
2023-05-17T08:39:52.441Z,45.00
2023-05-17T08:40:52.390Z,45.00
2023-05-17T08:42:13.360Z,50.63
2023-05-17T08:43:13.319Z,56.25
2023-05-17T08:43:52.286Z,56.25
2023-05-17T08:44:52.243Z,61.88
2023-05-17T08:45:52.217Z,61.88
2023-05-17T08:47:13.210Z,61.88
2023-05-17T08:48:13.262Z,67.50
2023-05-17T08:48:52.257Z,73.13
2023-05-17T08:49:52.078Z,67.50
2023-05-17T08:50:52.037Z,61.88
2023-05-17T08:52:13.001Z,61.88
2023-05-17T08:53:13.030Z,67.50
2023-05-17T08:53:51.938Z,56.25
2023-05-17T08:54:51.903Z,56.25
2023-05-17T08:55:51.868Z,67.50
2023-05-17T08:57:12.833Z,61.88
2023-05-17T08:58:12.807Z,67.50
2023-05-17T08:58:56.625Z,67.50
2023-05-17T08:59:51.728Z,67.50
2023-05-17T09:00:51.723Z,67.50
2023-05-17T09:02:12.695Z,61.88
2023-05-17T09:03:12.652Z,56.25
2023-05-17T09:03:51.657Z,50.63
2023-05-17T09:04:51.757Z,56.25
2023-05-17T09:05:51.608Z,56.25
2023-05-17T09:07:12.932Z,56.25
2023-05-17T09:08:12.456Z,61.88
2023-05-17T09:08:51.424Z,67.50
2023-05-17T09:09:51.391Z,73.13
2023-05-17T09:10:51.356Z,73.13
2023-05-17T09:12:12.315Z,73.13
2023-05-17T09:13:12.292Z,67.50
2023-05-17T09:13:51.292Z,73.13
2023-05-17T09:14:51.223Z,73.13
2023-05-17T09:15:51.195Z,67.50
2023-05-17T09:17:12.159Z,73.13
2023-05-17T09:18:12.153Z,73.13
2023-05-17T09:18:51.214Z,73.13
2023-05-17T09:19:51.170Z,73.13
2023-05-17T09:20:51.017Z,78.75
2023-05-17T09:22:11.980Z,78.75
2023-05-17T09:23:11.947Z,78.75
2023-05-17T09:24:01.795Z,84.38
2023-05-17T09:24:50.890Z,78.75
2023-05-17T09:25:50.868Z,78.75
2023-05-17T09:27:11.845Z,78.75
2023-05-17T09:28:11.786Z,78.75
2023-05-17T09:28:50.753Z,78.75
2023-05-17T09:29:50.716Z,78.75
2023-05-17T09:30:50.693Z,78.75
2023-05-17T09:32:11.656Z,78.75
2023-05-17T09:33:13.079Z,84.38
2023-05-17T09:33:50.602Z,84.38
2023-05-17T09:34:50.548Z,84.38
2023-05-17T09:35:50.526Z,84.38
2023-05-17T09:37:11.501Z,84.38
2023-05-17T09:38:11.452Z,78.75
2023-05-17T09:38:50.431Z,78.75
2023-05-17T09:39:50.381Z,67.50
2023-05-17T09:40:50.346Z,61.88
2023-05-17T09:42:11.314Z,61.88
2023-05-17T09:43:11.297Z,67.50
2023-05-17T09:43:50.262Z,73.13
2023-05-17T09:44:50.225Z,78.75
2023-05-17T09:45:50.188Z,78.75
2023-05-17T09:47:11.151Z,78.75
2023-05-17T09:48:11.245Z,78.75
2023-05-17T09:48:50.260Z,78.75
2023-05-17T09:49:50.100Z,78.75
2023-05-17T09:50:50.035Z,78.75
2023-05-17T09:52:10.987Z,78.75
2023-05-17T09:53:11.072Z,78.75
2023-05-17T09:53:49.923Z,78.75
2023-05-17T09:54:49.898Z,84.38
2023-05-17T09:55:49.869Z,78.75
2023-05-17T09:57:10.834Z,78.75
2023-05-17T09:58:10.789Z,78.75
2023-05-17T09:58:49.764Z,73.13
2023-05-17T09:59:49.731Z,73.13
2023-05-17T10:00:49.697Z,73.13
2023-05-17T10:02:10.654Z,78.75
2023-05-17T10:03:10.732Z,78.75
2023-05-17T10:03:49.638Z,78.75
2023-05-17T10:04:49.603Z,90.00
2023-05-17T10:05:49.541Z,90.00
2023-05-17T10:07:10.501Z,90.00
2023-05-17T10:08:10.469Z,101.25
2023-05-17T10:08:49.432Z,101.25
2023-05-17T10:09:49.398Z,90.00
2023-05-17T10:10:49.367Z,90.00
2023-05-17T10:12:10.374Z,84.38
2023-05-17T10:13:10.311Z,84.38
2023-05-17T10:13:49.270Z,90.00
2023-05-17T10:14:49.274Z,90.00
2023-05-17T10:15:49.208Z,95.63
2023-05-17T10:17:10.177Z,95.63
2023-05-17T10:18:10.283Z,90.00
2023-05-17T10:18:49.162Z,101.25
2023-05-17T10:19:49.219Z,95.63
2023-05-17T10:20:49.045Z,84.38
2023-05-17T10:22:21.769Z,73.13
2023-05-17T10:23:09.978Z,73.13
2023-05-17T10:23:48.940Z,73.13
2023-05-17T10:24:48.994Z,67.50
2023-05-17T10:25:48.876Z,78.75
2023-05-17T10:27:09.845Z,84.38
2023-05-17T10:28:09.809Z,90.00
2023-05-17T10:28:48.803Z,95.63
2023-05-17T10:29:50.563Z,101.25
2023-05-17T10:30:48.716Z,106.88
2023-05-17T10:32:09.683Z,90.00
2023-05-17T10:33:09.868Z,84.38
2023-05-17T10:33:48.664Z,84.38
2023-05-17T10:35:01.558Z,106.88
2023-05-17T10:35:48.558Z,112.50
2023-05-17T10:37:09.521Z,101.25
2023-05-17T10:38:09.497Z,95.63
2023-05-17T10:38:48.457Z,95.63
2023-05-17T10:39:48.431Z,90.00
2023-05-17T10:40:48.459Z,90.00
2023-05-17T10:43:09.330Z,84.38
2023-05-17T10:43:48.308Z,90.00
2023-05-17T10:44:48.269Z,90.00
2023-05-17T10:45:48.237Z,84.38
2023-05-17T10:47:09.226Z,90.00
2023-05-17T10:48:09.206Z,106.88
2023-05-17T10:48:48.211Z,112.50
2023-05-17T10:49:48.224Z,106.88
2023-05-17T10:50:54.901Z,84.38
2023-05-17T10:52:09.044Z,84.38
2023-05-17T10:53:09.003Z,78.75
2023-05-17T10:53:47.977Z,90.00
2023-05-17T10:54:47.968Z,95.63
2023-05-17T10:55:47.907Z,101.25
2023-05-17T10:57:09.177Z,101.25
2023-05-17T10:58:08.851Z,112.50
2023-05-17T10:58:47.819Z,118.13
2023-05-17T10:59:47.780Z,123.75
2023-05-17T11:00:47.765Z,129.38
2023-05-17T11:02:08.713Z,129.38
2023-05-17T11:03:08.719Z,129.38
2023-05-17T11:03:47.659Z,135.00
2023-05-17T11:04:47.635Z,140.63
2023-05-17T11:05:48.146Z,157.50
2023-05-17T11:07:10.296Z,106.88
2023-05-17T11:08:08.533Z,118.13
2023-05-17T11:08:47.505Z,106.88
2023-05-17T11:09:47.467Z,118.13
2023-05-17T11:10:47.441Z,95.63
2023-05-17T11:12:08.451Z,90.00
2023-05-17T11:13:08.386Z,95.63
2023-05-17T11:13:47.408Z,168.75
2023-05-17T11:14:47.339Z,174.38
2023-05-17T11:15:47.286Z,168.75
2023-05-17T11:17:08.256Z,168.75
2023-05-17T11:18:15.931Z,168.75
2023-05-17T11:19:47.217Z,106.88
2023-05-17T11:20:47.244Z,90.00
2023-05-17T11:22:08.111Z,101.25
2023-05-17T11:23:08.077Z,101.25
2023-05-17T11:23:47.047Z,225.00
2023-05-17T11:24:47.021Z,236.25
2023-05-17T11:25:46.992Z,241.88
2023-05-17T11:27:07.958Z,247.50
2023-05-17T11:28:07.926Z,253.13
2023-05-17T11:28:46.897Z,129.38
2023-05-17T11:29:46.867Z,253.13
2023-05-17T11:30:46.883Z,253.13
2023-05-17T11:32:07.805Z,258.75
2023-05-17T11:33:17.156Z,264.38
2023-05-17T11:33:46.879Z,270.00
2023-05-17T11:34:46.720Z,281.25
2023-05-17T11:35:46.700Z,286.88
2023-05-17T11:37:07.689Z,123.75
2023-05-17T11:38:07.645Z,118.13
2023-05-17T11:38:48.129Z,253.13
2023-05-17T11:39:46.580Z,112.50
2023-05-17T11:40:46.548Z,106.88
2023-05-17T11:42:07.512Z,106.88
2023-05-17T11:43:07.486Z,106.88
2023-05-17T11:43:46.453Z,106.88
2023-05-17T11:44:46.442Z,112.50
2023-05-17T11:45:46.409Z,191.25
2023-05-17T11:47:07.406Z,101.25
2023-05-17T11:48:07.442Z,112.50
2023-05-17T11:48:46.342Z,151.88
2023-05-17T11:49:46.280Z,309.38
2023-05-17T11:50:46.248Z,309.38
2023-05-17T11:52:07.251Z,309.38
2023-05-17T11:53:07.194Z,309.38
2023-05-17T11:53:46.168Z,320.63
2023-05-17T11:54:46.149Z,326.25
2023-05-17T11:55:46.102Z,129.38
2023-05-17T11:57:07.077Z,123.75
2023-05-17T11:58:07.050Z,360.00
2023-05-17T11:58:46.021Z,371.25
2023-05-17T11:59:45.982Z,365.63
2023-05-17T12:00:46.114Z,371.25
2023-05-17T12:02:06.938Z,163.13
2023-05-17T12:03:06.939Z,213.75
2023-05-17T12:03:45.877Z,168.75
2023-05-17T12:04:45.909Z,376.88
2023-05-17T12:05:45.821Z,376.88
2023-05-17T12:07:06.789Z,112.50
2023-05-17T12:08:06.773Z,106.88
2023-05-17T12:08:45.732Z,95.63
2023-05-17T12:09:45.714Z,343.13
2023-05-17T12:10:45.683Z,376.88
2023-05-17T12:12:06.650Z,376.88
2023-05-17T12:13:06.621Z,348.75
2023-05-17T12:13:45.609Z,95.63
2023-05-17T12:14:45.562Z,101.25
2023-05-17T12:15:45.536Z,118.13
2023-05-17T12:17:06.515Z,140.63
2023-05-17T12:18:06.541Z,433.13
2023-05-17T12:18:45.570Z,450.00
2023-05-17T12:19:45.551Z,118.13
2023-05-17T12:20:45.401Z,106.88
2023-05-17T12:22:06.384Z,106.88
2023-05-17T12:23:06.335Z,112.50
2023-05-17T12:23:45.302Z,118.13
2023-05-17T12:24:45.305Z,112.50
2023-05-17T12:25:45.241Z,146.25
2023-05-17T12:27:06.220Z,129.38
2023-05-17T12:28:06.191Z,123.75
2023-05-17T12:28:45.162Z,450.00
2023-05-17T12:29:45.130Z,438.75
2023-05-17T12:30:45.098Z,258.75
2023-05-17T12:32:06.072Z,461.25
2023-05-17T12:33:06.144Z,208.13
2023-05-17T12:33:45.173Z,95.63
2023-05-17T12:34:44.995Z,101.25
2023-05-17T12:35:44.952Z,112.50
2023-05-17T12:37:05.924Z,365.63
2023-05-17T12:38:05.889Z,331.88
2023-05-17T12:38:44.886Z,478.13
2023-05-17T12:39:44.839Z,472.50
2023-05-17T12:40:44.811Z,483.75
2023-05-17T12:42:05.785Z,483.75
2023-05-17T12:43:05.745Z,489.38
2023-05-17T12:43:44.728Z,489.38
2023-05-17T12:44:44.699Z,483.75
2023-05-17T12:45:44.674Z,483.75
2023-05-17T12:47:05.659Z,483.75
2023-05-17T12:48:05.707Z,489.38
2023-05-17T12:48:44.637Z,483.75
2023-05-17T12:49:44.563Z,483.75
2023-05-17T12:50:44.523Z,489.38
2023-05-17T12:52:05.500Z,495.00
2023-05-17T12:53:05.469Z,495.00
2023-05-17T12:53:44.429Z,506.25
2023-05-17T12:54:44.398Z,517.50
2023-05-17T12:55:44.380Z,382.50
2023-05-17T12:57:05.336Z,241.88
2023-05-17T12:58:05.308Z,146.25
2023-05-17T12:58:44.288Z,123.75
2023-05-17T12:59:44.249Z,123.75